sensor_id;sensor_type;location;lat;lon;timestamp;pressure;altitude;pressure_sealevel;temperature;humidity
64610;BME280;51019;46.090;6.350;2023-07-24T00:01:56;96042.47;;;23.20;54.47
64610;BME280;51019;46.090;6.350;2023-07-24T00:04:23;96057.22;;;23.23;54.93
64610;BME280;51019;46.090;6.350;2023-07-24T00:06:52;96045.38;;;23.18;55.57
64610;BME280;51019;46.090;6.350;2023-07-24T00:09:20;96056.28;;;23.29;55.68
64610;BME280;51019;46.090;6.350;2023-07-24T00:11:47;96048.84;;;23.19;55.61
64610;BME280;51019;46.090;6.350;2023-07-24T00:14:16;96031.56;;;22.98;55.83
64610;BME280;51019;46.090;6.350;2023-07-24T00:16:43;96034.69;;;23.07;55.35
64610;BME280;51019;46.090;6.350;2023-07-24T00:19:13;96028.75;;;23.16;54.14
64610;BME280;51019;46.090;6.350;2023-07-24T00:21:41;96043.88;;;23.23;54.21
64610;BME280;51019;46.090;6.350;2023-07-24T00:24:09;95999.03;;;23.01;55.63
64610;BME280;51019;46.090;6.350;2023-07-24T00:26:37;96017.16;;;22.99;55.98
64610;BME280;51019;46.090;6.350;2023-07-24T00:29:04;96015.28;;;22.76;56.94
64610;BME280;51019;46.090;6.350;2023-07-24T00:31:31;96005.44;;;22.59;56.69
64610;BME280;51019;46.090;6.350;2023-07-24T00:33:58;96011.28;;;22.67;56.58
64610;BME280;51019;46.090;6.350;2023-07-24T00:36:27;96006.88;;;22.73;56.30
64610;BME280;51019;46.090;6.350;2023-07-24T00:38:55;95999.66;;;22.62;56.26
64610;BME280;51019;46.090;6.350;2023-07-24T00:41:23;95990.78;;;22.79;55.63
64610;BME280;51019;46.090;6.350;2023-07-24T00:43:50;95986.13;;;22.87;54.63
64610;BME280;51019;46.090;6.350;2023-07-24T00:46:17;95990.75;;;22.91;54.89
64610;BME280;51019;46.090;6.350;2023-07-24T00:48:50;95987.84;;;23.04;54.73
64610;BME280;51019;46.090;6.350;2023-07-24T00:51:19;95984.25;;;22.99;54.14
64610;BME280;51019;46.090;6.350;2023-07-24T00:53:52;95980.41;;;22.95;54.12
64610;BME280;51019;46.090;6.350;2023-07-24T00:56:19;95972.97;;;23.08;54.11
64610;BME280;51019;46.090;6.350;2023-07-24T00:58:47;95970.09;;;22.98;53.59
64610;BME280;51019;46.090;6.350;2023-07-24T01:01:16;95967.53;;;22.92;54.09
64610;BME280;51019;46.090;6.350;2023-07-24T01:03:44;95958.38;;;22.88;54.19
64610;BME280;51019;46.090;6.350;2023-07-24T01:08:39;95935.72;;;22.90;53.93
64610;BME280;51019;46.090;6.350;2023-07-24T01:11:12;95925.25;;;23.00;52.56
64610;BME280;51019;46.090;6.350;2023-07-24T01:13:45;95912.31;;;23.21;50.89
64610;BME280;51019;46.090;6.350;2023-07-24T01:16:14;95900.75;;;23.32;49.71
64610;BME280;51019;46.090;6.350;2023-07-24T01:18:45;95904.59;;;23.36;49.61
64610;BME280;51019;46.090;6.350;2023-07-24T01:21:15;95900.16;;;23.41;49.15
64610;BME280;51019;46.090;6.350;2023-07-24T01:23:58;95887.69;;;23.47;49.41
64610;BME280;51019;46.090;6.350;2023-07-24T01:26:32;95866.66;;;23.39;49.66
64610;BME280;51019;46.090;6.350;2023-07-24T01:28:59;95851.66;;;23.38;50.59
64610;BME280;51019;46.090;6.350;2023-07-24T01:31:26;95828.00;;;23.01;52.30
64610;BME280;51019;46.090;6.350;2023-07-24T01:33:54;95841.59;;;23.00;52.71
64610;BME280;51019;46.090;6.350;2023-07-24T01:36:22;95848.38;;;22.91;52.95
64610;BME280;51019;46.090;6.350;2023-07-24T01:38:50;95866.69;;;22.99;52.64
64610;BME280;51019;46.090;6.350;2023-07-24T01:41:19;95863.19;;;23.10;52.75
64610;BME280;51019;46.090;6.350;2023-07-24T01:43:48;95855.34;;;23.20;51.97
64610;BME280;51019;46.090;6.350;2023-07-24T01:46:16;95840.78;;;23.28;52.04
64610;BME280;51019;46.090;6.350;2023-07-24T01:48:43;95842.59;;;23.39;52.34
64610;BME280;51019;46.090;6.350;2023-07-24T01:51:11;95816.91;;;23.38;52.31
64610;BME280;51019;46.090;6.350;2023-07-24T01:53:39;95797.88;;;23.34;52.82
64610;BME280;51019;46.090;6.350;2023-07-24T01:56:07;95831.66;;;23.24;53.32
64610;BME280;51019;46.090;6.350;2023-07-24T01:58:34;95837.13;;;23.17;54.00
64610;BME280;51019;46.090;6.350;2023-07-24T02:01:03;95840.97;;;23.09;55.02
64610;BME280;51019;46.090;6.350;2023-07-24T02:03:30;95825.22;;;22.96;56.66
64610;BME280;51019;46.090;6.350;2023-07-24T02:05:57;95825.38;;;22.90;57.72
64610;BME280;51019;46.090;6.350;2023-07-24T02:08:25;95808.41;;;22.61;60.69
64610;BME280;51019;46.090;6.350;2023-07-24T02:10:52;95819.09;;;22.61;61.60
64610;BME280;51019;46.090;6.350;2023-07-24T02:13:19;95810.22;;;22.32;62.55
64610;BME280;51019;46.090;6.350;2023-07-24T02:15:47;95824.38;;;22.44;62.63
64610;BME280;51019;46.090;6.350;2023-07-24T02:18:16;95840.94;;;22.58;62.22
64610;BME280;51019;46.090;6.350;2023-07-24T02:20:48;95856.41;;;22.44;64.02
64610;BME280;51019;46.090;6.350;2023-07-24T02:23:16;95950.28;;;22.29;64.45
64610;BME280;51019;46.090;6.350;2023-07-24T02:25:43;96058.81;;;21.69;69.17
64610;BME280;51019;46.090;6.350;2023-07-24T02:28:10;96078.09;;;22.07;65.41
64610;BME280;51019;46.090;6.350;2023-07-24T02:30:38;96091.72;;;22.89;65.10
64610;BME280;51019;46.090;6.350;2023-07-24T02:33:06;96124.53;;;23.43;73.49
64610;BME280;51019;46.090;6.350;2023-07-24T02:35:40;96193.75;;;23.74;80.38
64610;BME280;51019;46.090;6.350;2023-07-24T02:38:07;96237.72;;;23.13;95.75
64610;BME280;51019;46.090;6.350;2023-07-24T02:40:35;96253.09;;;22.52;100.00
64610;BME280;51019;46.090;6.350;2023-07-24T02:43:03;96279.03;;;22.08;100.00
64610;BME280;51019;46.090;6.350;2023-07-24T02:45:33;96296.13;;;21.13;100.00
64610;BME280;51019;46.090;6.350;2023-07-24T02:48:01;96285.81;;;20.40;100.00
64610;BME280;51019;46.090;6.350;2023-07-24T02:50:28;96317.28;;;20.56;100.00
64610;BME280;51019;46.090;6.350;2023-07-24T02:52:58;96295.19;;;20.49;100.00
64610;BME280;51019;46.090;6.350;2023-07-24T02:55:25;96305.94;;;20.81;100.00
64610;BME280;51019;46.090;6.350;2023-07-24T02:57:53;96277.00;;;20.26;100.00
64610;BME280;51019;46.090;6.350;2023-07-24T03:00:21;96294.59;;;20.47;100.00
64610;BME280;51019;46.090;6.350;2023-07-24T03:02:48;96276.78;;;20.48;100.00
64610;BME280;51019;46.090;6.350;2023-07-24T03:05:15;96212.72;;;20.43;100.00
64610;BME280;51019;46.090;6.350;2023-07-24T03:07:43;96150.31;;;20.25;100.00
64610;BME280;51019;46.090;6.350;2023-07-24T03:10:13;96150.31;;;20.25;100.00
64610;BME280;51019;46.090;6.350;2023-07-24T03:12:40;96128.22;;;20.25;100.00
64610;BME280;51019;46.090;6.350;2023-07-24T03:15:08;96077.13;;;20.10;100.00
64610;BME280;51019;46.090;6.350;2023-07-24T03:17:35;96051.69;;;20.20;100.00
64610;BME280;51019;46.090;6.350;2023-07-24T03:20:08;96095.06;;;20.59;100.00
64610;BME280;51019;46.090;6.350;2023-07-24T03:22:36;96091.66;;;20.52;100.00
64610;BME280;51019;46.090;6.350;2023-07-24T03:25:04;96108.78;;;20.62;100.00
64610;BME280;51019;46.090;6.350;2023-07-24T03:27:33;96081.84;;;20.46;100.00
64610;BME280;51019;46.090;6.350;2023-07-24T03:30:01;96069.91;;;20.55;100.00
64610;BME280;51019;46.090;6.350;2023-07-24T03:32:30;96067.91;;;20.50;100.00
64610;BME280;51019;46.090;6.350;2023-07-24T03:34:57;96077.50;;;20.20;100.00
64610;BME280;51019;46.090;6.350;2023-07-24T03:37:24;96043.59;;;20.09;100.00
64610;BME280;51019;46.090;6.350;2023-07-24T03:39:52;96060.88;;;20.24;100.00
64610;BME280;51019;46.090;6.350;2023-07-24T03:42:27;96065.78;;;20.27;100.00
64610;BME280;51019;46.090;6.350;2023-07-24T03:44:56;96041.16;;;20.01;100.00
64610;BME280;51019;46.090;6.350;2023-07-24T03:47:24;96029.22;;;20.10;100.00
64610;BME280;51019;46.090;6.350;2023-07-24T03:49:52;96026.97;;;20.13;100.00
64610;BME280;51019;46.090;6.350;2023-07-24T03:52:19;96019.59;;;20.47;100.00
64610;BME280;51019;46.090;6.350;2023-07-24T03:54:46;96008.34;;;20.13;100.00
64610;BME280;51019;46.090;6.350;2023-07-24T03:57:13;96016.81;;;20.35;100.00
64610;BME280;51019;46.090;6.350;2023-07-24T03:59:41;96015.16;;;20.41;100.00
64610;BME280;51019;46.090;6.350;2023-07-24T04:02:10;96023.75;;;20.43;100.00
64610;BME280;51019;46.090;6.350;2023-07-24T04:04:37;96025.25;;;20.57;100.00
64610;BME280;51019;46.090;6.350;2023-07-24T04:07:05;96031.41;;;20.57;100.00
64610;BME280;51019;46.090;6.350;2023-07-24T04:09:33;96011.53;;;19.97;100.00
64610;BME280;51019;46.090;6.350;2023-07-24T04:12:00;95999.25;;;19.96;100.00
64610;BME280;51019;46.090;6.350;2023-07-24T04:14:28;96046.41;;;20.14;100.00
64610;BME280;51019;46.090;6.350;2023-07-24T04:16:55;96047.16;;;20.21;100.00
64610;BME280;51019;46.090;6.350;2023-07-24T04:19:24;96036.59;;;20.46;100.00
64610;BME280;51019;46.090;6.350;2023-07-24T04:21:51;96056.25;;;20.45;100.00
64610;BME280;51019;46.090;6.350;2023-07-24T04:24:19;96055.75;;;20.23;100.00
64610;BME280;51019;46.090;6.350;2023-07-24T04:26:46;96038.00;;;20.17;100.00
64610;BME280;51019;46.090;6.350;2023-07-24T04:29:14;96027.56;;;20.15;100.00
64610;BME280;51019;46.090;6.350;2023-07-24T04:31:43;96025.06;;;20.20;100.00
64610;BME280;51019;46.090;6.350;2023-07-24T04:34:10;96022.00;;;20.23;100.00
64610;BME280;51019;46.090;6.350;2023-07-24T04:36:39;96026.88;;;20.58;100.00
64610;BME280;51019;46.090;6.350;2023-07-24T04:39:06;96037.97;;;20.55;100.00
64610;BME280;51019;46.090;6.350;2023-07-24T04:41:33;96034.34;;;20.49;100.00
64610;BME280;51019;46.090;6.350;2023-07-24T04:44:00;96020.06;;;20.06;100.00
64610;BME280;51019;46.090;6.350;2023-07-24T04:46:28;96024.94;;;19.71;100.00
64610;BME280;51019;46.090;6.350;2023-07-24T04:48:55;96011.66;;;20.09;100.00
64610;BME280;51019;46.090;6.350;2023-07-24T04:51:22;96004.72;;;20.33;100.00
64610;BME280;51019;46.090;6.350;2023-07-24T04:53:51;95982.06;;;20.55;100.00
64610;BME280;51019;46.090;6.350;2023-07-24T04:56:20;96009.50;;;20.24;100.00
64610;BME280;51019;46.090;6.350;2023-07-24T04:58:47;96026.41;;;20.43;100.00
64610;BME280;51019;46.090;6.350;2023-07-24T05:01:15;96042.47;;;20.54;100.00
64610;BME280;51019;46.090;6.350;2023-07-24T05:03:42;96034.13;;;20.51;100.00
64610;BME280;51019;46.090;6.350;2023-07-24T05:06:10;96034.72;;;20.53;100.00
64610;BME280;51019;46.090;6.350;2023-07-24T05:08:37;96052.38;;;20.72;100.00
64610;BME280;51019;46.090;6.350;2023-07-24T05:11:06;96035.38;;;20.73;100.00
64610;BME280;51019;46.090;6.350;2023-07-24T05:13:34;96034.00;;;20.39;100.00
64610;BME280;51019;46.090;6.350;2023-07-24T05:16:01;96036.94;;;20.56;100.00
64610;BME280;51019;46.090;6.350;2023-07-24T05:18:28;96006.31;;;20.47;100.00
64610;BME280;51019;46.090;6.350;2023-07-24T05:20:55;95990.25;;;20.28;100.00
64610;BME280;51019;46.090;6.350;2023-07-24T05:23:23;95999.19;;;20.41;100.00
64610;BME280;51019;46.090;6.350;2023-07-24T05:25:56;95994.81;;;20.53;100.00
64610;BME280;51019;46.090;6.350;2023-07-24T05:28:25;96020.66;;;20.71;100.00
64610;BME280;51019;46.090;6.350;2023-07-24T05:30:53;96023.63;;;20.56;100.00
64610;BME280;51019;46.090;6.350;2023-07-24T05:33:20;96019.56;;;20.53;100.00
64610;BME280;51019;46.090;6.350;2023-07-24T05:35:48;96018.91;;;20.58;100.00
64610;BME280;51019;46.090;6.350;2023-07-24T05:38:16;96056.97;;;20.27;100.00
64610;BME280;51019;46.090;6.350;2023-07-24T05:40:43;96042.63;;;19.97;100.00
64610;BME280;51019;46.090;6.350;2023-07-24T05:43:10;96057.13;;;20.01;100.00
64610;BME280;51019;46.090;6.350;2023-07-24T05:45:39;96079.09;;;19.83;100.00
64610;BME280;51019;46.090;6.350;2023-07-24T05:48:07;96101.22;;;19.70;100.00
64610;BME280;51019;46.090;6.350;2023-07-24T05:50:34;96117.75;;;19.79;100.00
64610;BME280;51019;46.090;6.350;2023-07-24T05:53:02;96137.41;;;19.78;100.00
64610;BME280;51019;46.090;6.350;2023-07-24T05:55:32;96191.03;;;19.48;100.00
64610;BME280;51019;46.090;6.350;2023-07-24T05:57:59;96234.75;;;19.79;100.00
64610;BME280;51019;46.090;6.350;2023-07-24T06:00:32;96270.94;;;19.93;100.00
64610;BME280;51019;46.090;6.350;2023-07-24T06:03:02;96196.63;;;20.11;100.00
64610;BME280;51019;46.090;6.350;2023-07-24T06:05:32;96128.13;;;20.45;100.00
64610;BME280;51019;46.090;6.350;2023-07-24T06:08:01;96056.13;;;20.40;100.00
64610;BME280;51019;46.090;6.350;2023-07-24T06:10:28;95954.81;;;20.03;100.00
64610;BME280;51019;46.090;6.350;2023-07-24T06:12:56;95985.16;;;20.20;100.00
64610;BME280;51019;46.090;6.350;2023-07-24T06:15:24;95985.28;;;20.07;100.00
64610;BME280;51019;46.090;6.350;2023-07-24T06:17:53;95973.00;;;19.75;100.00
64610;BME280;51019;46.090;6.350;2023-07-24T06:20:22;95920.03;;;19.73;100.00
64610;BME280;51019;46.090;6.350;2023-07-24T06:22:49;95947.47;;;19.99;100.00
64610;BME280;51019;46.090;6.350;2023-07-24T06:25:17;95931.25;;;20.07;100.00
64610;BME280;51019;46.090;6.350;2023-07-24T06:27:47;95935.53;;;20.33;100.00
64610;BME280;51019;46.090;6.350;2023-07-24T06:30:27;95947.53;;;19.92;100.00
64610;BME280;51019;46.090;6.350;2023-07-24T06:33:14;95875.69;;;19.29;100.00
64610;BME280;51019;46.090;6.350;2023-07-24T06:36:10;95972.41;;;20.04;100.00
64610;BME280;51019;46.090;6.350;2023-07-24T06:38:38;95941.44;;;19.85;100.00
64610;BME280;51019;46.090;6.350;2023-07-24T06:41:08;95934.31;;;19.79;100.00
64610;BME280;51019;46.090;6.350;2023-07-24T06:43:35;95843.03;;;19.22;100.00
64610;BME280;51019;46.090;6.350;2023-07-24T06:46:02;95904.63;;;19.82;100.00
64610;BME280;51019;46.090;6.350;2023-07-24T06:48:30;95919.03;;;19.99;100.00
64610;BME280;51019;46.090;6.350;2023-07-24T06:50:59;95905.38;;;19.96;100.00
64610;BME280;51019;46.090;6.350;2023-07-24T06:53:32;95920.94;;;19.92;100.00
64610;BME280;51019;46.090;6.350;2023-07-24T06:56:05;95936.06;;;20.48;100.00
64610;BME280;51019;46.090;6.350;2023-07-24T06:59:03;95954.50;;;20.67;100.00
64610;BME280;51019;46.090;6.350;2023-07-24T07:01:33;95886.63;;;20.34;100.00
64610;BME280;51019;46.090;6.350;2023-07-24T07:04:19;96013.75;;;21.79;100.00
64610;BME280;51019;46.090;6.350;2023-07-24T07:06:49;96027.31;;;22.67;100.00
64610;BME280;51019;46.090;6.350;2023-07-24T07:09:38;95942.66;;;22.56;100.00
64610;BME280;51019;46.090;6.350;2023-07-24T07:12:06;96026.94;;;22.52;100.00
64610;BME280;51019;46.090;6.350;2023-07-24T07:14:34;96053.00;;;22.68;100.00
64610;BME280;51019;46.090;6.350;2023-07-24T07:17:01;96074.78;;;22.54;100.00
64610;BME280;51019;46.090;6.350;2023-07-24T07:19:29;96004.53;;;21.63;100.00
64610;BME280;51019;46.090;6.350;2023-07-24T07:22:01;96105.91;;;22.00;100.00
64610;BME280;51019;46.090;6.350;2023-07-24T07:24:31;96078.25;;;22.54;100.00
64610;BME280;51019;46.090;6.350;2023-07-24T07:27:01;96031.94;;;22.19;100.00
64610;BME280;51019;46.090;6.350;2023-07-24T07:29:29;95959.78;;;22.25;100.00
64610;BME280;51019;46.090;6.350;2023-07-24T07:32:06;96030.31;;;22.59;100.00
64610;BME280;51019;46.090;6.350;2023-07-24T07:34:35;95969.34;;;21.73;100.00
64610;BME280;51019;46.090;6.350;2023-07-24T07:37:04;96015.53;;;21.85;100.00
64610;BME280;51019;46.090;6.350;2023-07-24T07:39:33;95997.97;;;21.66;100.00
64610;BME280;51019;46.090;6.350;2023-07-24T07:42:04;95883.00;;;20.71;100.00
64610;BME280;51019;46.090;6.350;2023-07-24T07:44:33;95940.72;;;21.14;100.00
64610;BME280;51019;46.090;6.350;2023-07-24T07:47:00;95994.47;;;21.47;100.00
64610;BME280;51019;46.090;6.350;2023-07-24T07:49:28;95999.22;;;21.63;100.00
64610;BME280;51019;46.090;6.350;2023-07-24T07:51:55;95982.41;;;21.45;100.00
64610;BME280;51019;46.090;6.350;2023-07-24T07:54:22;95957.25;;;21.22;100.00
64610;BME280;51019;46.090;6.350;2023-07-24T07:56:50;95941.19;;;21.29;100.00
64610;BME280;51019;46.090;6.350;2023-07-24T07:59:20;95937.94;;;21.27;100.00
64610;BME280;51019;46.090;6.350;2023-07-24T08:01:48;95918.63;;;21.61;100.00
64610;BME280;51019;46.090;6.350;2023-07-24T08:04:16;95947.66;;;21.99;100.00
64610;BME280;51019;46.090;6.350;2023-07-24T08:06:45;95990.09;;;22.01;100.00
64610;BME280;51019;46.090;6.350;2023-07-24T08:09:13;95959.09;;;21.88;100.00
64610;BME280;51019;46.090;6.350;2023-07-24T08:11:42;95971.56;;;21.76;100.00
64610;BME280;51019;46.090;6.350;2023-07-24T08:14:10;95959.94;;;22.54;100.00
64610;BME280;51019;46.090;6.350;2023-07-24T08:16:41;95939.44;;;21.83;100.00
64610;BME280;51019;46.090;6.350;2023-07-24T08:19:09;95955.44;;;22.66;100.00
64610;BME280;51019;46.090;6.350;2023-07-24T08:21:37;95951.44;;;22.22;100.00
64610;BME280;51019;46.090;6.350;2023-07-24T08:24:06;95922.66;;;21.94;100.00
64610;BME280;51019;46.090;6.350;2023-07-24T08:26:34;95878.81;;;21.78;100.00
64610;BME280;51019;46.090;6.350;2023-07-24T08:29:03;95916.75;;;22.33;100.00
64610;BME280;51019;46.090;6.350;2023-07-24T08:31:33;95935.66;;;22.20;100.00
64610;BME280;51019;46.090;6.350;2023-07-24T08:34:03;95930.97;;;22.04;100.00
64610;BME280;51019;46.090;6.350;2023-07-24T08:36:30;95933.81;;;22.44;100.00
64610;BME280;51019;46.090;6.350;2023-07-24T08:38:58;95897.94;;;22.28;100.00
64610;BME280;51019;46.090;6.350;2023-07-24T08:41:26;95876.88;;;21.97;100.00
64610;BME280;51019;46.090;6.350;2023-07-24T08:43:54;95911.78;;;21.95;100.00
64610;BME280;51019;46.090;6.350;2023-07-24T08:46:22;95897.97;;;21.87;100.00
64610;BME280;51019;46.090;6.350;2023-07-24T08:48:52;95914.66;;;21.94;100.00
64610;BME280;51019;46.090;6.350;2023-07-24T08:51:24;95912.44;;;21.91;100.00
64610;BME280;51019;46.090;6.350;2023-07-24T08:53:52;95915.69;;;22.11;100.00
64610;BME280;51019;46.090;6.350;2023-07-24T08:56:20;95910.03;;;22.42;100.00
64610;BME280;51019;46.090;6.350;2023-07-24T08:58:50;95901.53;;;22.22;100.00
64610;BME280;51019;46.090;6.350;2023-07-24T09:01:18;95917.66;;;22.16;100.00
64610;BME280;51019;46.090;6.350;2023-07-24T09:03:46;95927.44;;;22.45;100.00
64610;BME280;51019;46.090;6.350;2023-07-24T09:06:13;95924.06;;;22.38;100.00
64610;BME280;51019;46.090;6.350;2023-07-24T09:08:45;95967.13;;;22.41;100.00
64610;BME280;51019;46.090;6.350;2023-07-24T09:11:14;95974.44;;;22.34;100.00
64610;BME280;51019;46.090;6.350;2023-07-24T09:13:42;95941.81;;;22.21;100.00
64610;BME280;51019;46.090;6.350;2023-07-24T09:16:21;95953.53;;;22.31;100.00
64610;BME280;51019;46.090;6.350;2023-07-24T09:18:48;95970.53;;;22.07;100.00
64610;BME280;51019;46.090;6.350;2023-07-24T09:21:27;95978.34;;;21.42;100.00
64610;BME280;51019;46.090;6.350;2023-07-24T09:24:11;95934.22;;;21.76;100.00
64610;BME280;51019;46.090;6.350;2023-07-24T09:26:56;95910.66;;;21.73;100.00
64610;BME280;51019;46.090;6.350;2023-07-24T09:29:41;95900.94;;;21.49;100.00
64610;BME280;51019;46.090;6.350;2023-07-24T09:32:23;95904.22;;;21.14;100.00
64610;BME280;51019;46.090;6.350;2023-07-24T09:35:16;95910.47;;;21.56;100.00
64610;BME280;51019;46.090;6.350;2023-07-24T09:37:46;95938.19;;;21.55;100.00
64610;BME280;51019;46.090;6.350;2023-07-24T09:40:17;95956.81;;;21.44;100.00
64610;BME280;51019;46.090;6.350;2023-07-24T09:42:45;95921.72;;;21.58;100.00
64610;BME280;51019;46.090;6.350;2023-07-24T09:45:13;95904.56;;;21.84;100.00
64610;BME280;51019;46.090;6.350;2023-07-24T09:47:41;95932.28;;;21.53;100.00
64610;BME280;51019;46.090;6.350;2023-07-24T09:50:10;95972.44;;;21.70;100.00
64610;BME280;51019;46.090;6.350;2023-07-24T09:52:43;95999.81;;;21.65;100.00
64610;BME280;51019;46.090;6.350;2023-07-24T09:55:26;95962.25;;;20.76;100.00
64610;BME280;51019;46.090;6.350;2023-07-24T09:58:01;95997.81;;;21.43;100.00
64610;BME280;51019;46.090;6.350;2023-07-24T10:00:35;95980.09;;;21.48;100.00
64610;BME280;51019;46.090;6.350;2023-07-24T10:03:17;95968.56;;;21.18;100.00
64610;BME280;51019;46.090;6.350;2023-07-24T10:05:46;95975.25;;;20.84;100.00
64610;BME280;51019;46.090;6.350;2023-07-24T10:08:15;95938.91;;;20.71;100.00
64610;BME280;51019;46.090;6.350;2023-07-24T10:10:52;95946.41;;;20.38;100.00
64610;BME280;51019;46.090;6.350;2023-07-24T10:16:38;95965.28;;;20.97;100.00
64610;BME280;51019;46.090;6.350;2023-07-24T10:19:16;95970.16;;;21.73;100.00
64610;BME280;51019;46.090;6.350;2023-07-24T10:22:16;95965.50;;;22.40;100.00
64610;BME280;51019;46.090;6.350;2023-07-24T10:24:47;96006.03;;;24.84;100.00
64610;BME280;51019;46.090;6.350;2023-07-24T10:27:23;95942.97;;;23.98;100.00
64610;BME280;51019;46.090;6.350;2023-07-24T10:29:59;96012.47;;;24.67;100.00
64610;BME280;51019;46.090;6.350;2023-07-24T10:32:26;95926.56;;;24.56;100.00
64610;BME280;51019;46.090;6.350;2023-07-24T10:34:58;95882.50;;;24.47;100.00
64610;BME280;51019;46.090;6.350;2023-07-24T10:37:33;95937.72;;;25.91;100.00
64610;BME280;51019;46.090;6.350;2023-07-24T10:40:02;95925.72;;;25.50;100.00
64610;BME280;51019;46.090;6.350;2023-07-24T10:42:42;96005.38;;;26.42;100.00
64610;BME280;51019;46.090;6.350;2023-07-24T10:45:12;95990.53;;;27.40;96.02
64610;BME280;51019;46.090;6.350;2023-07-24T10:47:39;95996.59;;;27.20;100.00
64610;BME280;51019;46.090;6.350;2023-07-24T10:50:07;95986.13;;;27.71;96.95
64610;BME280;51019;46.090;6.350;2023-07-24T10:52:35;95988.06;;;27.86;85.41
64610;BME280;51019;46.090;6.350;2023-07-24T10:55:02;95934.84;;;27.40;96.52
64610;BME280;51019;46.090;6.350;2023-07-24T10:57:30;95985.97;;;26.98;85.00
64610;BME280;51019;46.090;6.350;2023-07-24T10:59:59;95982.81;;;27.54;88.66
64610;BME280;51019;46.090;6.350;2023-07-24T11:02:26;95979.88;;;27.55;81.37
64610;BME280;51019;46.090;6.350;2023-07-24T11:04:58;95972.13;;;27.22;84.61
64610;BME280;51019;46.090;6.350;2023-07-24T11:07:25;95947.78;;;26.59;91.77
64610;BME280;51019;46.090;6.350;2023-07-24T11:09:59;95959.81;;;26.52;89.20
64610;BME280;51019;46.090;6.350;2023-07-24T11:12:26;95947.09;;;26.15;97.29
64610;BME280;51019;46.090;6.350;2023-07-24T11:14:56;95942.69;;;26.04;95.06
64610;BME280;51019;46.090;6.350;2023-07-24T11:17:35;95939.50;;;26.34;93.59
64610;BME280;51019;46.090;6.350;2023-07-24T11:20:08;95901.19;;;26.17;91.25
64610;BME280;51019;46.090;6.350;2023-07-24T11:22:38;95938.16;;;26.63;95.30
64610;BME280;51019;46.090;6.350;2023-07-24T11:25:07;95935.56;;;26.15;100.00
64610;BME280;51019;46.090;6.350;2023-07-24T11:27:38;95930.53;;;25.70;100.00
64610;BME280;51019;46.090;6.350;2023-07-24T11:30:10;95918.03;;;25.80;100.00
64610;BME280;51019;46.090;6.350;2023-07-24T11:32:40;95918.41;;;26.48;95.66
64610;BME280;51019;46.090;6.350;2023-07-24T11:35:09;95914.91;;;26.47;92.42
64610;BME280;51019;46.090;6.350;2023-07-24T11:37:36;95910.72;;;26.61;93.39
64610;BME280;51019;46.090;6.350;2023-07-24T11:40:05;95903.63;;;26.18;96.94
64610;BME280;51019;46.090;6.350;2023-07-24T11:42:39;95902.91;;;26.65;93.96
64610;BME280;51019;46.090;6.350;2023-07-24T11:45:08;95899.91;;;26.56;92.45
64610;BME280;51019;46.090;6.350;2023-07-24T11:47:45;95887.53;;;26.92;88.42
64610;BME280;51019;46.090;6.350;2023-07-24T11:50:15;95872.00;;;27.77;82.92
64610;BME280;51019;46.090;6.350;2023-07-24T11:52:44;95864.78;;;28.33;82.18
64610;BME280;51019;46.090;6.350;2023-07-24T11:55:13;95892.75;;;27.76;81.21
64610;BME280;51019;46.090;6.350;2023-07-24T11:57:41;95869.72;;;27.38;87.46
64610;BME280;51019;46.090;6.350;2023-07-24T12:00:18;95868.53;;;28.12;78.29
64610;BME280;51019;46.090;6.350;2023-07-24T12:02:47;95870.16;;;28.89;74.21
64610;BME280;51019;46.090;6.350;2023-07-24T12:05:15;95865.03;;;28.87;73.22
64610;BME280;51019;46.090;6.350;2023-07-24T12:07:45;95854.56;;;28.20;72.09
64610;BME280;51019;46.090;6.350;2023-07-24T12:10:24;95858.81;;;28.77;68.96
64610;BME280;51019;46.090;6.350;2023-07-24T12:12:53;95849.09;;;28.91;67.41
64610;BME280;51019;46.090;6.350;2023-07-24T12:15:21;95844.81;;;28.65;68.58
64610;BME280;51019;46.090;6.350;2023-07-24T12:17:50;95833.78;;;28.66;65.47
64610;BME280;51019;46.090;6.350;2023-07-24T12:20:24;95826.38;;;29.02;65.91
64610;BME280;51019;46.090;6.350;2023-07-24T12:22:51;95828.00;;;30.07;62.95
64610;BME280;51019;46.090;6.350;2023-07-24T12:25:19;95825.63;;;29.56;63.12
64610;BME280;51019;46.090;6.350;2023-07-24T12:27:47;95822.38;;;28.95;64.42
64610;BME280;51019;46.090;6.350;2023-07-24T12:30:15;95841.94;;;29.25;64.46
64610;BME280;51019;46.090;6.350;2023-07-24T12:35:58;95780.47;;;28.23;65.54
64610;BME280;51019;46.090;6.350;2023-07-24T12:38:27;95816.00;;;28.50;69.22
64610;BME280;51019;46.090;6.350;2023-07-24T12:40:57;95843.28;;;27.15;72.50
64610;BME280;51019;46.090;6.350;2023-07-24T12:43:32;95851.94;;;27.27;72.14
64610;BME280;51019;46.090;6.350;2023-07-24T12:46:15;95802.16;;;27.20;72.24
64610;BME280;51019;46.090;6.350;2023-07-24T12:48:42;95772.81;;;27.08;72.78
64610;BME280;51019;46.090;6.350;2023-07-24T12:51:12;95796.13;;;26.92;77.50
64610;BME280;51019;46.090;6.350;2023-07-24T12:53:42;95781.50;;;26.73;74.17
64610;BME280;51019;46.090;6.350;2023-07-24T12:56:13;95759.88;;;26.06;72.97
64610;BME280;51019;46.090;6.350;2023-07-24T12:58:41;95818.09;;;26.79;73.17
64610;BME280;51019;46.090;6.350;2023-07-24T13:01:09;95824.47;;;27.25;75.31
64610;BME280;51019;46.090;6.350;2023-07-24T13:03:37;95830.19;;;26.82;73.68
64610;BME280;51019;46.090;6.350;2023-07-24T13:06:04;95834.78;;;26.39;77.47
64610;BME280;51019;46.090;6.350;2023-07-24T13:08:33;95838.50;;;26.80;73.00
64610;BME280;51019;46.090;6.350;2023-07-24T13:11:02;95834.34;;;26.52;73.82
64610;BME280;51019;46.090;6.350;2023-07-24T13:13:30;95829.13;;;26.35;72.74
64610;BME280;51019;46.090;6.350;2023-07-24T13:15:57;95801.50;;;26.45;74.23